createdAt,value
2017-03-13T00:00:17.064Z,86.6
2017-03-13T00:01:19.304Z,86.6
2017-03-13T00:02:22.088Z,86.6
2017-03-13T00:03:24.771Z,86.5
2017-03-13T00:04:27.340Z,86.5
2017-03-13T00:05:30.044Z,86.5
2017-03-13T00:06:32.706Z,86.5
2017-03-13T00:07:35.397Z,86.5
2017-03-13T00:08:37.645Z,86.4
2017-03-13T00:09:40.408Z,86.6
2017-03-13T00:10:42.232Z,86.7
2017-03-13T00:11:44.924Z,86.6
2017-03-13T00:12:46.773Z,86.7
2017-03-13T00:13:49.761Z,86.6
2017-03-13T00:14:52.425Z,86.6
2017-03-13T00:15:54.671Z,86.4
2017-03-13T00:16:57.774Z,86.4
2017-03-13T00:18:00.016Z,86.5
2017-03-13T00:19:02.256Z,86.7
2017-03-13T00:20:04.203Z,86.6
2017-03-13T00:21:07.306Z,86.6
2017-03-13T00:22:09.125Z,86.8
2017-03-13T00:23:10.945Z,86.7
2017-03-13T00:24:13.617Z,86.7
2017-03-13T00:25:15.447Z,86.8
2017-03-13T00:26:17.700Z,86.8
2017-03-13T00:27:19.536Z,86.8
2017-03-13T00:28:21.352Z,86.8
2017-03-13T00:29:24.392Z,86.9
2017-03-13T00:30:26.226Z,87
2017-03-13T00:31:28.631Z,87
2017-03-13T00:32:30.891Z,87
2017-03-13T00:33:33.309Z,87
2017-03-13T00:34:35.141Z,86.7
2017-03-13T00:35:38.379Z,86.7
2017-03-13T00:36:41.069Z,86.9
2017-03-13T00:37:43.302Z,86.7
2017-03-13T00:38:45.995Z,86.9
2017-03-13T00:39:48.239Z,87
2017-03-13T00:40:50.473Z,87
2017-03-13T00:41:52.387Z,86.9
2017-03-13T00:42:54.667Z,86.9
2017-03-13T00:43:57.346Z,86.7
2017-03-13T00:45:00.386Z,86.9
2017-03-13T00:46:02.202Z,86.7
2017-03-13T00:47:04.156Z,86.7
2017-03-13T00:48:05.978Z,86.7
2017-03-13T00:49:08.662Z,87.2
2017-03-13T00:50:11.795Z,87.3
2017-03-13T00:51:14.467Z,87.5
2017-03-13T00:52:17.706Z,87.4
2017-03-13T00:53:19.944Z,87.3
2017-03-13T00:54:23.034Z,87.5
2017-03-13T00:55:25.276Z,87.4
2017-03-13T00:56:28.902Z,87.6
2017-03-13T00:57:30.712Z,87.6
2017-03-13T00:58:32.525Z,87.8
2017-03-13T00:59:34.796Z,87.5
2017-03-13T01:00:36.633Z,87.5
2017-03-13T01:01:39.309Z,87.4
2017-03-13T01:02:41.957Z,87.7
2017-03-13T01:03:45.042Z,88
2017-03-13T01:04:48.061Z,88
2017-03-13T01:05:50.724Z,87.8
2017-03-13T01:06:53.026Z,87.9
2017-03-13T01:07:55.256Z,87.8
2017-03-13T01:08:57.504Z,88
2017-03-13T01:09:59.357Z,88
2017-03-13T01:11:01.228Z,87.8
2017-03-13T01:12:03.057Z,88
2017-03-13T01:13:05.301Z,88.2
2017-03-13T01:14:07.551Z,88.3
2017-03-13T01:15:10.365Z,88.2
2017-03-13T01:16:12.634Z,88.3
2017-03-13T01:17:14.875Z,88.1
2017-03-13T01:18:16.808Z,88.2
2017-03-13T01:19:19.095Z,88.5
2017-03-13T01:20:21.328Z,88.6
2017-03-13T01:21:23.140Z,88.4
2017-03-13T01:22:25.817Z,88.6
2017-03-13T01:23:28.508Z,88.6
2017-03-13T01:24:30.765Z,88.6
2017-03-13T01:25:33.442Z,88.7
2017-03-13T01:26:36.121Z,88.7
2017-03-13T01:27:38.387Z,88.5
2017-03-13T01:28:40.290Z,88.5
2017-03-13T01:29:42.117Z,88.5
2017-03-13T01:30:43.937Z,88.5
2017-03-13T01:31:46.613Z,88.6
2017-03-13T01:32:49.265Z,88.6
2017-03-13T01:33:51.934Z,88.6
2017-03-13T01:34:53.898Z,88.5
2017-03-13T01:35:56.568Z,88.5
2017-03-13T01:36:59.313Z,88.3
2017-03-13T01:38:01.966Z,88.5
2017-03-13T01:39:04.675Z,88.5
2017-03-13T01:40:06.482Z,88.5
2017-03-13T01:41:09.169Z,88.5
2017-03-13T01:42:11.080Z,88.4
2017-03-13T01:43:12.881Z,88.4
2017-03-13T01:44:15.135Z,88.2
2017-03-13T01:45:17.060Z,88.3
2017-03-13T01:46:18.898Z,88.4
2017-03-13T01:47:21.157Z,88.4
2017-03-13T01:48:23.419Z,88.3
2017-03-13T01:49:25.662Z,88.5
2017-03-13T01:50:28.772Z,88.5
2017-03-13T01:51:31.424Z,88.5
2017-03-13T01:52:33.679Z,88.6
2017-03-13T01:53:36.392Z,88.4
2017-03-13T01:54:39.086Z,88.3
2017-03-13T01:55:42.156Z,88.3
2017-03-13T01:56:44.828Z,88.5
2017-03-13T01:57:47.105Z,88.4
2017-03-13T01:58:49.772Z,88.4
2017-03-13T01:59:52.035Z,88.4
2017-03-13T02:00:54.359Z,88.4
2017-03-13T02:01:56.180Z,88.2
2017-03-13T02:02:58.033Z,88.1
2017-03-13T02:04:00.755Z,88.2
2017-03-13T02:05:03.434Z,88.1
2017-03-13T02:06:05.714Z,88.1
2017-03-13T02:07:07.945Z,88.1
2017-03-13T02:08:10.291Z,88
2017-03-13T02:09:12.124Z,88.3
2017-03-13T02:10:14.845Z,88.4
2017-03-13T02:11:17.506Z,88.5
2017-03-13T02:12:20.593Z,88.2
2017-03-13T02:13:23.681Z,88.1
2017-03-13T02:14:26.746Z,88.2
2017-03-13T02:15:29.067Z,88.2
2017-03-13T02:16:31.304Z,88.3
2017-03-13T02:17:34.900Z,88.5
2017-03-13T02:18:37.151Z,88.4
2017-03-13T02:19:39.413Z,88.4
2017-03-13T02:20:41.234Z,88.5
2017-03-13T02:21:43.500Z,88.6
2017-03-13T02:22:45.316Z,88.6
2017-03-13T02:23:47.999Z,88.6
2017-03-13T02:24:50.244Z,88.4
2017-03-13T02:25:53.077Z,88.2
2017-03-13T02:26:54.906Z,88.3
2017-03-13T02:27:57.602Z,88.3
2017-03-13T02:28:59.908Z,88.5
2017-03-13T02:30:02.568Z,88.7
2017-03-13T02:31:04.487Z,88.7
2017-03-13T02:32:06.727Z,88.6
2017-03-13T02:33:09.387Z,88.6
2017-03-13T02:34:12.071Z,88.5
2017-03-13T02:35:14.295Z,88.6
2017-03-13T02:36:16.268Z,88.7
2017-03-13T02:37:18.525Z,88.7
2017-03-13T02:38:20.924Z,88.9
2017-03-13T02:39:23.577Z,88.9
2017-03-13T02:40:25.945Z,89.2
2017-03-13T02:41:28.169Z,89.3
2017-03-13T02:42:30.840Z,89.4
2017-03-13T02:43:33.926Z,89.5
2017-03-13T02:44:35.826Z,89.5
2017-03-13T02:45:38.104Z,89.5
2017-03-13T02:46:41.203Z,89.5
2017-03-13T02:47:43.451Z,89.3
2017-03-13T02:48:46.960Z,89.2
2017-03-13T02:49:50.039Z,89.2
2017-03-13T02:50:52.713Z,89.1
2017-03-13T02:51:55.453Z,89
2017-03-13T02:52:58.528Z,89.1
2017-03-13T02:54:00.777Z,89.2
2017-03-13T02:55:02.595Z,89.2
2017-03-13T02:56:05.272Z,89.3
2017-03-13T02:57:07.092Z,89.3
2017-03-13T02:58:09.084Z,89.1
2017-03-13T02:59:11.312Z,89
2017-03-13T03:00:13.543Z,89
2017-03-13T03:01:15.456Z,89
2017-03-13T03:02:17.277Z,89
2017-03-13T03:03:19.518Z,88.9
2017-03-13T03:04:22.194Z,88.9
2017-03-13T03:05:24.217Z,88.9
2017-03-13T03:06:26.881Z,88.8
2017-03-13T03:07:28.725Z,88.8
2017-03-13T03:08:31.412Z,88.8
2017-03-13T03:09:33.666Z,88.9
2017-03-13T03:10:36.462Z,88.9
2017-03-13T03:11:38.301Z,88.8
2017-03-13T03:12:40.538Z,88.8
2017-03-13T03:13:42.778Z,88.7
2017-03-13T03:14:45.461Z,88.8
2017-03-13T03:15:48.241Z,88.8
2017-03-13T03:16:50.505Z,88.9
2017-03-13T03:17:52.743Z,88.8
2017-03-13T03:18:54.996Z,88.9
2017-03-13T03:19:57.249Z,88.8
2017-03-13T03:21:00.082Z,88.8
2017-03-13T03:22:02.356Z,88.9
2017-03-13T03:23:05.045Z,88.9
2017-03-13T03:24:07.304Z,88.8
2017-03-13T03:25:09.116Z,88.8
2017-03-13T03:26:10.959Z,88.9
2017-03-13T03:27:12.799Z,88.8
2017-03-13T03:28:15.480Z,88.6
2017-03-13T03:29:17.701Z,88.8
2017-03-13T03:30:20.356Z,88.8
2017-03-13T03:31:22.168Z,88.9
2017-03-13T03:32:24.415Z,88.8
2017-03-13T03:33:26.647Z,88.5
2017-03-13T03:34:29.320Z,88.4
2017-03-13T03:35:31.579Z,88.5
2017-03-13T03:36:33.428Z,88.8
2017-03-13T03:37:35.656Z,88.8
2017-03-13T03:38:38.310Z,88.9
2017-03-13T03:39:40.981Z,88.9
2017-03-13T03:40:43.259Z,89
2017-03-13T03:41:45.955Z,89.1
2017-03-13T03:42:49.051Z,89.1
2017-03-13T03:43:51.336Z,89.1
2017-03-13T03:44:53.595Z,89.2
2017-03-13T03:45:55.835Z,89
2017-03-13T03:46:57.639Z,89
2017-03-13T03:47:59.451Z,89
2017-03-13T03:49:01.276Z,89.2
2017-03-13T03:50:03.080Z,89.3
2017-03-13T03:51:04.897Z,89.3
2017-03-13T03:52:06.714Z,89.3
2017-03-13T03:53:08.958Z,89.2
2017-03-13T03:54:11.183Z,89.2
2017-03-13T03:55:13.413Z,89
2017-03-13T03:56:15.661Z,88.9
2017-03-13T03:57:18.768Z,89.1
2017-03-13T03:58:20.581Z,89
2017-03-13T03:59:22.395Z,89.1
2017-03-13T04:00:24.640Z,89.2
2017-03-13T04:01:27.306Z,89.1
2017-03-13T04:02:29.551Z,89.2
2017-03-13T04:03:32.229Z,89.4
2017-03-13T04:04:34.050Z,89.4
2017-03-13T04:05:35.892Z,89.6
2017-03-13T04:06:38.120Z,89.7
2017-03-13T04:07:39.932Z,89.7
2017-03-13T04:08:42.584Z,89.7
2017-03-13T04:09:45.279Z,89.7
2017-03-13T04:10:47.954Z,89.8
2017-03-13T04:11:50.621Z,89.7
2017-03-13T04:12:52.874Z,89.6
2017-03-13T04:13:54.726Z,89.6
2017-03-13T04:14:57.371Z,89.7
2017-03-13T04:16:00.028Z,89.9
2017-03-13T04:17:01.829Z,90.7
2017-03-13T04:18:04.504Z,90.7
2017-03-13T04:19:06.754Z,90.2
2017-03-13T04:20:08.604Z,90.1
2017-03-13T04:21:11.243Z,89.3
2017-03-13T04:22:13.521Z,89.4
2017-03-13T04:23:16.212Z,89.3
2017-03-13T04:24:19.735Z,89.2
2017-03-13T04:25:21.972Z,89.1
2017-03-13T04:26:24.259Z,89
2017-03-13T04:27:26.943Z,89.1
2017-03-13T04:28:29.183Z,89.1
2017-03-13T04:29:31.487Z,89.1
2017-03-13T04:30:34.156Z,89
2017-03-13T04:31:36.403Z,89.1
2017-03-13T04:32:39.068Z,89.3
2017-03-13T04:33:41.791Z,89.4
2017-03-13T04:34:45.318Z,89.6
2017-03-13T04:35:47.122Z,89.5
2017-03-13T04:36:49.364Z,89.6
2017-03-13T04:37:51.626Z,89.7
2017-03-13T04:38:53.879Z,89.7
2017-03-13T04:39:55.722Z,89.6
2017-03-13T04:40:58.382Z,89.7
2017-03-13T04:42:00.635Z,89.7
2017-03-13T04:43:02.888Z,89.7
2017-03-13T04:44:06.002Z,89.8
2017-03-13T04:45:08.276Z,89.8
2017-03-13T04:46:11.336Z,89.9
2017-03-13T04:47:13.571Z,89.9
2017-03-13T04:48:15.420Z,89.8
2017-03-13T04:49:18.493Z,89.8
2017-03-13T04:50:20.317Z,89.8
2017-03-13T04:51:22.551Z,89.9
2017-03-13T04:52:25.202Z,89.9
2017-03-13T04:53:27.009Z,89.9
2017-03-13T04:54:29.701Z,89.9
2017-03-13T04:55:32.356Z,89.9
2017-03-13T04:56:35.478Z,89.9
2017-03-13T04:57:38.975Z,89.9
2017-03-13T04:58:41.639Z,89.9
2017-03-13T04:59:43.893Z,90.1
2017-03-13T05:00:46.124Z,90.3
2017-03-13T05:01:48.801Z,90.2
2017-03-13T05:02:51.076Z,90.5
2017-03-13T05:03:53.309Z,89.9
2017-03-13T05:04:55.561Z,89.8
2017-03-13T05:05:57.818Z,89.7
2017-03-13T05:07:00.063Z,89.6
2017-03-13T05:08:01.890Z,89.2
2017-03-13T05:09:04.567Z,89.2
2017-03-13T05:10:06.389Z,89.2
2017-03-13T05:11:09.048Z,89.2
2017-03-13T05:12:12.135Z,89.2
2017-03-13T05:13:14.393Z,89.2
2017-03-13T05:14:16.618Z,89
2017-03-13T05:15:19.314Z,88.9
2017-03-13T05:16:21.559Z,88.5
2017-03-13T05:17:24.121Z,88.4
2017-03-13T05:18:26.799Z,88.6
2017-03-13T05:19:29.044Z,88.5
2017-03-13T05:20:31.274Z,88.6
2017-03-13T05:21:33.099Z,88.3
2017-03-13T05:22:36.159Z,88.4
2017-03-13T05:23:37.970Z,88.5
2017-03-13T05:24:40.206Z,88.4
2017-03-13T05:25:42.446Z,88.3
2017-03-13T05:26:44.247Z,88.3
2017-03-13T05:27:46.524Z,88.3
2017-03-13T05:28:48.759Z,88.3
2017-03-13T05:29:51.433Z,88.1
2017-03-13T05:30:53.656Z,88
2017-03-13T05:31:55.893Z,87.9
2017-03-13T05:32:58.132Z,87.9
2017-03-13T05:34:00.409Z,87.9
2017-03-13T05:35:03.061Z,87.9
2017-03-13T05:36:04.887Z,88
2017-03-13T05:37:07.110Z,88.1
2017-03-13T05:38:09.389Z,88.1
2017-03-13T05:39:11.210Z,88.2
2017-03-13T05:40:13.038Z,88.1
2017-03-13T05:41:15.688Z,88.1
2017-03-13T05:42:18.366Z,88.2
2017-03-13T05:43:21.038Z,88.1
2017-03-13T05:44:23.296Z,88.2
2017-03-13T05:45:25.516Z,88.1
2017-03-13T05:46:27.743Z,88
2017-03-13T05:47:30.017Z,87.9
2017-03-13T05:48:32.284Z,87.7
2017-03-13T05:49:34.728Z,87.8
2017-03-13T05:50:37.565Z,87.9
2017-03-13T05:51:39.505Z,87.8
2017-03-13T05:52:42.880Z,87.8
2017-03-13T05:53:45.565Z,87.9
2017-03-13T05:54:48.252Z,88
2017-03-13T05:55:50.520Z,88
2017-03-13T05:56:52.805Z,88.1
2017-03-13T05:57:55.046Z,88.1
2017-03-13T05:58:57.762Z,88.1
2017-03-13T06:00:00.085Z,88
2017-03-13T06:01:02.212Z,88
2017-03-13T06:02:04.466Z,87.9
2017-03-13T06:03:06.711Z,88
2017-03-13T06:04:08.963Z,87.8
2017-03-13T06:05:11.442Z,87.6
2017-03-13T06:06:13.704Z,87.6
2017-03-13T06:07:15.990Z,87
2017-03-13T06:08:18.318Z,87
2017-03-13T06:09:20.561Z,86.9
2017-03-13T06:10:22.386Z,86.9
2017-03-13T06:11:24.643Z,87.1
2017-03-13T06:12:26.509Z,87
2017-03-13T06:13:28.773Z,87
2017-03-13T06:14:30.825Z,87.1
2017-03-13T06:15:33.565Z,87.2
2017-03-13T06:16:35.763Z,87.1
2017-03-13T06:17:38.446Z,87.1
2017-03-13T06:18:41.127Z,87
2017-03-13T06:19:43.437Z,87
2017-03-13T06:20:45.340Z,87
2017-03-13T06:21:48.464Z,86.9
2017-03-13T06:22:52.002Z,86.9
2017-03-13T06:23:54.254Z,86.9
2017-03-13T06:24:56.503Z,86.8
2017-03-13T06:25:58.448Z,86.7
2017-03-13T06:27:00.678Z,86.5
2017-03-13T06:28:02.505Z,86.5
2017-03-13T06:29:04.759Z,86.5
2017-03-13T06:30:06.587Z,86.3
2017-03-13T06:31:09.288Z,86.2
2017-03-13T06:32:11.598Z,86
2017-03-13T06:33:13.879Z,86
2017-03-13T06:34:17.004Z,85.9
2017-03-13T06:35:20.089Z,85.9
2017-03-13T06:36:21.894Z,85.8
2017-03-13T06:37:24.966Z,85.7
2017-03-13T06:38:27.694Z,85.6
2017-03-13T06:39:29.538Z,85.5
2017-03-13T06:40:32.223Z,85.4
2017-03-13T06:41:34.890Z,85.3
2017-03-13T06:42:37.187Z,85.3
2017-03-13T06:43:39.436Z,85.1
2017-03-13T06:44:42.143Z,85
2017-03-13T06:45:45.262Z,84.7
2017-03-13T06:46:47.099Z,84.7
2017-03-13T06:47:50.194Z,84.7
2017-03-13T06:48:53.326Z,84.5
2017-03-13T06:49:55.609Z,84.4
2017-03-13T06:50:57.896Z,84.6
2017-03-13T06:51:59.750Z,84.6
2017-03-13T06:53:02.463Z,84.4
2017-03-13T06:54:04.350Z,84.1
2017-03-13T06:55:06.195Z,84.2
2017-03-13T06:56:08.916Z,84
2017-03-13T06:57:11.166Z,83.9
2017-03-13T06:58:13.879Z,84.1
2017-03-13T06:59:17.007Z,83.6
2017-03-13T07:00:19.258Z,83.3
2017-03-13T07:01:21.215Z,83.2
2017-03-13T07:02:23.104Z,83.3
2017-03-13T07:03:25.793Z,83
2017-03-13T07:04:27.648Z,83.4
2017-03-13T07:05:30.774Z,83
2017-03-13T07:06:33.013Z,82.6
2017-03-13T07:07:34.930Z,82.1
2017-03-13T07:08:37.611Z,82.1
2017-03-13T07:09:40.288Z,81.9
2017-03-13T07:10:42.198Z,81.8
2017-03-13T07:11:44.035Z,82
2017-03-13T07:12:45.924Z,82.4
2017-03-13T07:13:47.772Z,81.5
2017-03-13T07:14:50.481Z,81.5
2017-03-13T07:15:52.346Z,81.2
2017-03-13T07:16:54.659Z,81.2
2017-03-13T07:17:57.317Z,81.1
2017-03-13T07:19:00.412Z,80.9
2017-03-13T07:20:02.679Z,81.1
2017-03-13T07:21:04.574Z,80.6
2017-03-13T07:22:06.820Z,80.6
2017-03-13T07:23:08.631Z,80.8
2017-03-13T07:24:11.336Z,80.5
2017-03-13T07:25:13.996Z,80.3
2017-03-13T07:26:16.257Z,80.4
2017-03-13T07:27:19.392Z,79.9
2017-03-13T07:28:22.515Z,79.7
2017-03-13T07:29:25.198Z,79.6
2017-03-13T07:30:27.965Z,79.6
2017-03-13T07:31:31.055Z,79.3
2017-03-13T07:32:32.869Z,79.3
2017-03-13T07:33:34.752Z,79.2
2017-03-13T07:34:38.319Z,79.2
2017-03-13T07:35:40.205Z,79.1
2017-03-13T07:36:42.081Z,79.3
2017-03-13T07:37:44.396Z,78.8
2017-03-13T07:38:46.233Z,78.6
2017-03-13T07:39:48.934Z,78.8
2017-03-13T07:40:51.641Z,78.4
2017-03-13T07:41:53.464Z,78.1
2017-03-13T07:42:55.805Z,77.6
2017-03-13T07:43:58.502Z,76.9
2017-03-13T07:45:00.755Z,76.6
2017-03-13T07:46:02.581Z,76.6
2017-03-13T07:47:05.351Z,76.9
2017-03-13T07:48:07.186Z,76.5
2017-03-13T07:49:09.916Z,75.7
2017-03-13T07:50:13.068Z,75.5
2017-03-13T07:51:15.839Z,74.9
2017-03-13T07:52:18.090Z,74.8
2017-03-13T07:53:20.859Z,73.9
2017-03-13T07:54:23.621Z,73.6
2017-03-13T07:55:25.449Z,73.2
2017-03-13T07:56:28.649Z,73.3
2017-03-13T07:57:30.889Z,73.6
2017-03-13T07:58:32.742Z,73.3
2017-03-13T07:59:37.268Z,73.4
2017-03-13T08:00:39.765Z,73.1
2017-03-13T08:01:41.803Z,72.6
2017-03-13T08:02:44.502Z,73.4
2017-03-13T08:03:46.420Z,73.2
2017-03-13T08:04:48.259Z,73
2017-03-13T08:05:50.091Z,72.7
2017-03-13T08:06:52.752Z,72.6
2017-03-13T08:07:54.850Z,72.7
2017-03-13T08:08:57.345Z,73.2
2017-03-13T08:10:00.031Z,72.9
2017-03-13T08:11:02.295Z,73.1
2017-03-13T08:12:04.206Z,73.3
2017-03-13T08:13:06.435Z,73.2
2017-03-13T08:14:08.386Z,73
2017-03-13T08:15:10.221Z,72.6
2017-03-13T08:16:12.624Z,72.2
2017-03-13T08:17:14.888Z,71.7
2017-03-13T08:18:16.851Z,71.6
2017-03-13T08:19:19.534Z,71.4
2017-03-13T08:20:22.244Z,71.8
2017-03-13T08:21:25.341Z,71.6
2017-03-13T08:22:27.305Z,71.7
2017-03-13T08:23:29.566Z,72
2017-03-13T08:24:31.456Z,71.6
2017-03-13T08:25:33.734Z,70.2
2017-03-13T08:26:37.266Z,70.2
2017-03-13T08:27:40.535Z,69.6
2017-03-13T08:28:43.433Z,68.9
2017-03-13T08:29:46.126Z,69.3
2017-03-13T08:30:48.043Z,69.3
2017-03-13T08:31:50.313Z,69.3
2017-03-13T08:32:52.628Z,69.3
2017-03-13T08:33:54.884Z,69.3
2017-03-13T08:34:57.201Z,68.8
2017-03-13T08:35:59.447Z,69.1
2017-03-13T08:37:01.707Z,67.9
2017-03-13T08:38:04.045Z,67.6
2017-03-13T08:39:06.314Z,68.2
2017-03-13T08:40:08.640Z,68
2017-03-13T08:41:10.891Z,68
2017-03-13T08:42:12.716Z,67.4
2017-03-13T08:43:15.446Z,67.2
2017-03-13T08:44:17.683Z,67.2
2017-03-13T08:45:19.919Z,66.4
2017-03-13T08:46:22.130Z,66.2
2017-03-13T08:47:24.871Z,67.2
2017-03-13T08:48:27.197Z,67.2
2017-03-13T08:49:29.883Z,66.7
2017-03-13T08:50:32.387Z,66.3
2017-03-13T08:51:35.051Z,66.2
2017-03-13T08:52:37.293Z,65.8
2017-03-13T08:53:39.641Z,66.2
2017-03-13T08:54:41.463Z,65.3
2017-03-13T08:55:43.749Z,65.9
2017-03-13T08:56:46.139Z,66.1
2017-03-13T08:57:47.988Z,65.9
2017-03-13T08:58:50.252Z,65.8
2017-03-13T08:59:52.556Z,65.9
2017-03-13T09:00:54.804Z,65.2
2017-03-13T09:01:57.503Z,65.3
2017-03-13T09:02:59.785Z,65.5
2017-03-13T09:04:02.053Z,64.8
2017-03-13T09:05:04.330Z,65
2017-03-13T09:06:06.176Z,64.6
2017-03-13T09:07:09.294Z,64.6
2017-03-13T09:08:11.148Z,65
2017-03-13T09:09:13.405Z,63.6
2017-03-13T09:10:15.649Z,63.2
2017-03-13T09:11:17.967Z,64.6
2017-03-13T09:12:20.221Z,61.8
2017-03-13T09:13:22.493Z,62.2
2017-03-13T09:14:24.784Z,62.5
2017-03-13T09:15:27.209Z,62.1
2017-03-13T09:16:29.088Z,61.9
2017-03-13T09:17:30.926Z,62
2017-03-13T09:18:32.802Z,61.6
2017-03-13T09:19:35.512Z,61.9
2017-03-13T09:20:37.384Z,61.9
2017-03-13T09:21:39.393Z,61.7
2017-03-13T09:22:41.642Z,61.9
2017-03-13T09:23:43.492Z,62.1
2017-03-13T09:24:46.326Z,62.8
2017-03-13T09:25:48.604Z,60.7
2017-03-13T09:26:51.061Z,60.8
2017-03-13T09:27:53.734Z,61.3
2017-03-13T09:28:56.466Z,61
2017-03-13T09:29:59.224Z,61.2
2017-03-13T09:31:01.059Z,62.3
2017-03-13T09:32:02.976Z,62.2
2017-03-13T09:33:04.796Z,61.5
2017-03-13T09:34:07.040Z,61
2017-03-13T09:35:09.328Z,61
2017-03-13T09:36:11.608Z,61.2
2017-03-13T09:37:13.849Z,60.6
2017-03-13T09:38:16.947Z,60.3
2017-03-13T09:39:19.204Z,60
2017-03-13T09:40:21.458Z,59.9
2017-03-13T09:41:24.130Z,59.5
2017-03-13T09:42:26.401Z,59.6
2017-03-13T09:43:28.651Z,59.8
2017-03-13T09:44:30.499Z,59.4
2017-03-13T09:45:32.762Z,58.8
2017-03-13T09:46:34.678Z,58.6
2017-03-13T09:47:37.819Z,58.7
2017-03-13T09:48:40.525Z,58.4
2017-03-13T09:49:42.778Z,57.7
2017-03-13T09:50:44.637Z,56.8
2017-03-13T09:51:47.315Z,56
2017-03-13T09:52:50.414Z,54.4
2017-03-13T09:53:52.680Z,54.8
2017-03-13T09:54:54.528Z,54.5
2017-03-13T09:55:56.778Z,54.7
2017-03-13T09:56:59.052Z,55.2
2017-03-13T09:58:00.899Z,55.7
2017-03-13T09:59:04.016Z,55.9
2017-03-13T10:00:06.720Z,55.3
2017-03-13T10:01:08.966Z,55.5
2017-03-13T10:02:11.667Z,55.1
2017-03-13T10:03:13.508Z,55.6
2017-03-13T10:04:16.203Z,55.9
2017-03-13T10:05:18.445Z,55.4
2017-03-13T10:06:20.300Z,54.5
2017-03-13T10:07:23.015Z,55
2017-03-13T10:08:25.681Z,54.8
2017-03-13T10:09:28.397Z,54.8
2017-03-13T10:10:31.513Z,55
2017-03-13T10:11:33.339Z,54.9
2017-03-13T10:12:36.044Z,55.8
2017-03-13T10:13:39.128Z,55.4
2017-03-13T10:14:42.264Z,54.7
2017-03-13T10:15:44.552Z,54.3
2017-03-13T10:16:47.679Z,54.9
2017-03-13T10:17:49.927Z,53.9
2017-03-13T10:18:52.637Z,54
2017-03-13T10:19:54.879Z,54.9
2017-03-13T10:20:57.153Z,55.3
2017-03-13T10:21:59.010Z,55.2
2017-03-13T10:23:01.293Z,54.5
2017-03-13T10:24:03.554Z,55.4
2017-03-13T10:25:05.836Z,54.1
2017-03-13T10:26:07.678Z,54.6
2017-03-13T10:27:10.778Z,54.7
2017-03-13T10:28:13.465Z,54
2017-03-13T10:29:15.316Z,54
2017-03-13T10:30:18.006Z,54.9
2017-03-13T10:31:20.269Z,55.1
2017-03-13T10:32:22.105Z,53.6
2017-03-13T10:33:24.340Z,53.8
2017-03-13T10:34:27.002Z,54.1
2017-03-13T10:35:29.258Z,54.5
2017-03-13T10:36:31.076Z,54.6
2017-03-13T10:37:33.780Z,54.4
2017-03-13T10:38:36.515Z,54.6
2017-03-13T10:39:38.773Z,55.1
2017-03-13T10:40:41.466Z,55.8
2017-03-13T10:41:43.712Z,55.6
2017-03-13T10:42:46.407Z,56.5
2017-03-13T10:43:49.086Z,56.7
2017-03-13T10:44:51.363Z,56.8
2017-03-13T10:45:53.631Z,57.5
2017-03-13T10:46:56.754Z,57.4
2017-03-13T10:47:59.485Z,57.4
2017-03-13T10:49:01.316Z,56.5
2017-03-13T10:50:03.570Z,56.7
2017-03-13T10:51:05.407Z,56.9
2017-03-13T10:52:07.694Z,56.3
2017-03-13T10:53:09.533Z,56.1
2017-03-13T10:54:11.358Z,56
2017-03-13T10:55:13.608Z,56.1
2017-03-13T10:56:15.462Z,56.1
2017-03-13T10:57:17.289Z,55.5
2017-03-13T10:58:19.119Z,55.3
2017-03-13T10:59:20.967Z,55.3
2017-03-13T11:00:22.799Z,54.9
2017-03-13T11:01:24.618Z,55
2017-03-13T11:02:26.898Z,54.7
2017-03-13T11:03:29.188Z,55.2
2017-03-13T11:04:31.451Z,55.4
2017-03-13T11:05:33.721Z,56.1
2017-03-13T11:06:35.986Z,55.8
2017-03-13T11:07:38.263Z,55.8
2017-03-13T11:08:40.097Z,56.3
2017-03-13T11:09:42.377Z,56.2
2017-03-13T11:10:44.651Z,56.1
2017-03-13T11:11:46.506Z,56.1
2017-03-13T11:12:48.334Z,56.4
2017-03-13T11:13:50.165Z,56
2017-03-13T11:14:51.980Z,56.2
2017-03-13T11:15:53.835Z,56.3
2017-03-13T11:16:56.082Z,56.6
2017-03-13T11:17:58.353Z,56.8
2017-03-13T11:19:00.636Z,56
2017-03-13T11:20:02.460Z,55.7
2017-03-13T11:21:04.731Z,56.2
2017-03-13T11:22:06.587Z,55.1
2017-03-13T11:23:08.417Z,54.7
2017-03-13T11:24:10.260Z,54.5
2017-03-13T11:25:13.354Z,54.7
2017-03-13T11:26:15.631Z,54.3
2017-03-13T11:27:18.336Z,54.3
2017-03-13T11:28:20.169Z,54.7
2017-03-13T11:29:22.441Z,54.5
2017-03-13T11:30:25.563Z,55.2
2017-03-13T11:31:27.826Z,55.9
2017-03-13T11:32:30.118Z,55.2
2017-03-13T11:33:32.806Z,54.6
2017-03-13T11:34:35.058Z,54.7
2017-03-13T11:35:37.741Z,55
2017-03-13T11:36:40.038Z,55.2
2017-03-13T11:37:43.564Z,55.2
2017-03-13T11:38:46.240Z,55
2017-03-13T11:39:48.965Z,54.7
2017-03-13T11:40:51.651Z,54.5
2017-03-13T11:41:53.914Z,54.8
2017-03-13T11:42:56.184Z,55
2017-03-13T11:43:58.040Z,54.8
2017-03-13T11:45:00.295Z,54.7
2017-03-13T11:46:02.125Z,54.7
2017-03-13T11:47:03.941Z,53.8
2017-03-13T11:48:06.217Z,54.3
2017-03-13T11:49:08.499Z,54.2
2017-03-13T11:50:10.757Z,54.7
2017-03-13T11:51:13.048Z,54.7
2017-03-13T11:52:15.326Z,54.6
2017-03-13T11:53:17.599Z,55.3
2017-03-13T11:54:19.893Z,55.5
2017-03-13T11:55:22.155Z,55.4
2017-03-13T11:56:24.411Z,55.3
2017-03-13T11:57:26.264Z,54.9
2017-03-13T11:58:28.126Z,55.3
2017-03-13T11:59:30.003Z,55.5
2017-03-13T12:00:32.674Z,55.7
2017-03-13T12:01:34.478Z,55.8
2017-03-13T12:02:36.710Z,55.6
2017-03-13T12:03:39.396Z,56.3
2017-03-13T12:04:41.235Z,55.8
2017-03-13T12:05:43.511Z,56.2
2017-03-13T12:06:45.770Z,55.6
2017-03-13T12:07:48.450Z,55.7
2017-03-13T12:08:51.565Z,55.8
2017-03-13T12:09:54.671Z,56.1
2017-03-13T12:10:57.354Z,56.3
2017-03-13T12:12:00.444Z,55.8
2017-03-13T12:13:02.293Z,56.4
2017-03-13T12:14:04.119Z,56.2
2017-03-13T12:15:07.240Z,56.3
2017-03-13T12:16:09.499Z,56.8
2017-03-13T12:17:12.174Z,56.9
2017-03-13T12:18:14.464Z,56.8
2017-03-13T12:19:16.287Z,56.8
2017-03-13T12:20:18.116Z,57.4
2017-03-13T12:21:20.807Z,56.8
2017-03-13T12:22:23.937Z,57.3
2017-03-13T12:23:26.597Z,57
2017-03-13T12:24:28.862Z,56.9
2017-03-13T12:25:30.707Z,57
2017-03-13T12:26:32.574Z,56.4
2017-03-13T12:27:34.401Z,56
2017-03-13T12:28:36.652Z,55.6
2017-03-13T12:29:38.506Z,55.9
2017-03-13T12:30:40.351Z,55.3
2017-03-13T12:31:42.181Z,55.4
2017-03-13T12:32:44.864Z,55.6
2017-03-13T12:33:47.559Z,55.6
2017-03-13T12:34:49.882Z,56
2017-03-13T12:35:52.140Z,55.9
2017-03-13T12:36:54.385Z,55.7
2017-03-13T12:37:57.918Z,57
2017-03-13T12:39:00.158Z,56.2
2017-03-13T12:40:02.408Z,56.3
2017-03-13T12:41:04.641Z,55.4
2017-03-13T12:42:07.139Z,54.8
2017-03-13T12:43:09.394Z,55
2017-03-13T12:44:11.218Z,55.2
2017-03-13T12:45:14.356Z,55.3
2017-03-13T12:46:16.631Z,55.5
2017-03-13T12:47:18.929Z,55.7
2017-03-13T12:48:21.651Z,55.6
2017-03-13T12:49:23.926Z,55.5
2017-03-13T12:50:26.616Z,55.2
2017-03-13T12:51:28.857Z,55.7
2017-03-13T12:55:11.747Z,56.1
2017-03-13T12:56:13.579Z,55.8
2017-03-13T12:57:15.827Z,56
2017-03-13T12:58:17.654Z,56.2
2017-03-13T12:59:19.920Z,56.3
2017-03-13T13:00:22.995Z,56.5
2017-03-13T13:01:25.225Z,56.4
2017-03-13T13:02:27.027Z,56.6
2017-03-13T13:03:30.107Z,56.8
2017-03-13T13:04:32.343Z,57.7
2017-03-13T13:05:34.581Z,57.2
2017-03-13T13:06:36.844Z,56.7
2017-03-13T13:07:38.641Z,56.6
2017-03-13T13:08:41.292Z,56.8
2017-03-13T13:09:43.091Z,56.8
2017-03-13T13:10:45.328Z,57
2017-03-13T13:11:47.133Z,56.9
2017-03-13T13:12:48.928Z,56.9
2017-03-13T13:13:50.733Z,56.9
2017-03-13T13:14:52.540Z,57.2
2017-03-13T13:15:54.345Z,57.7
2017-03-13T13:16:56.200Z,57.8
2017-03-13T13:17:58.000Z,57.7
2017-03-13T13:19:00.223Z,57.8
2017-03-13T13:20:02.029Z,58
2017-03-13T13:21:04.291Z,58.1
2017-03-13T13:22:06.094Z,58.1
2017-03-13T13:23:08.736Z,58.5
2017-03-13T13:24:10.981Z,58.6
2017-03-13T13:25:13.629Z,59.1
2017-03-13T13:26:15.889Z,59
2017-03-13T13:27:18.120Z,58.5
2017-03-13T13:28:20.340Z,58.8
2017-03-13T13:29:23.017Z,58.5
2017-03-13T13:30:24.825Z,58.6
2017-03-13T13:31:27.053Z,58.6
2017-03-13T13:32:29.276Z,58.9
2017-03-13T13:33:31.089Z,59.2
2017-03-13T13:34:32.900Z,59.2
2017-03-13T13:35:34.705Z,59.8
2017-03-13T13:36:37.810Z,59.4
2017-03-13T13:37:39.608Z,58.7
2017-03-13T13:38:41.409Z,58.9
2017-03-13T13:39:43.643Z,58.7
2017-03-13T13:40:45.894Z,58.9
2017-03-13T13:41:48.565Z,59.2
2017-03-13T13:42:50.374Z,58.9
2017-03-13T13:43:52.601Z,59.6
2017-03-13T13:44:55.252Z,59
2017-03-13T13:45:57.475Z,59.1
2017-03-13T13:46:59.702Z,59.2
2017-03-13T13:48:01.928Z,59.2
2017-03-13T13:49:04.587Z,59.4
2017-03-13T13:50:06.386Z,59.6
2017-03-13T13:51:08.612Z,58.4
2017-03-13T13:52:10.439Z,58.8
2017-03-13T13:53:12.755Z,58.7
2017-03-13T13:54:14.978Z,58.8
2017-03-13T13:55:18.055Z,58.7
2017-03-13T13:56:20.704Z,59
2017-03-13T13:57:23.831Z,58.3
2017-03-13T13:58:26.485Z,58.2